Accueil
METAR-TAF:

METAR-TAF

Aéroports :

Col de Resia, Italie

latitude: 46-50N, longitude: 010-30E, altitude: 1800 m

Observation

Le bulletin a été fait il y a 1 heure et 4 minutes, à 14:55 UTC
Vent 7 kt de sud-ouest
Température -7°C
Humidité 100%
Pression 997 hPa
Visibilité: 0800 m
Ciel couvert à une hauteur de 300 ft
neige faible, brouillard givrant

METAR: LIVE 081455Z 22007KT 0800 -SN FZFG OVC003 M07/M07 Q0997 RMK OVC VIS MIN 0800

Heure: 16:59 (15:59 UTC)


TAF: absent

Observations et prévisions météorologiques de plus de 4000 aéroports (messages METAR et TAF).

Les stations disponibles sont représentées par des disques jaunes et rouges sur la carte.

Passer la souris dessus pour voir le nom de la station.

Cliquer dessus pour voir les observations et prévisions météorologiques.

Pour changer de carte: cliquez sur les boutons verts avec une croix noire pour zoomer, sur le bouton vert avec un tiret pour effectuer un zoom arrière, ou sur les flèches vertes pour les cartes adjacentes.


METAR-TAF: